createdAt,value
2019-01-17T00:01:34.781Z,7.60
2019-01-17T00:04:20.966Z,7.83
2019-01-17T00:07:15.827Z,8.53
2019-01-17T00:10:00.776Z,7.97
2019-01-17T00:12:46.700Z,8.63
2019-01-17T00:15:45.000Z,7.17
2019-01-17T00:21:15.503Z,7.73
2019-01-17T00:24:19.704Z,7.20
2019-01-17T00:27:08.709Z,7.93
2019-01-17T00:30:03.732Z,7.73
2019-01-17T00:32:51.086Z,7.73
2019-01-17T00:35:41.208Z,7.40
2019-01-17T00:38:42.357Z,8.10
2019-01-17T00:44:01.343Z,7.83
2019-01-17T00:46:39.335Z,7.53
2019-01-17T00:49:24.225Z,7.60
2019-01-17T00:52:10.166Z,7.17
2019-01-17T00:58:25.697Z,7.60
2019-01-17T01:01:03.849Z,7.20
2019-01-17T01:03:42.965Z,7.70
2019-01-17T01:06:43.789Z,7.83
2019-01-17T01:09:24.350Z,7.63
2019-01-17T01:12:18.048Z,7.77
2019-01-17T01:15:10.347Z,7.83
2019-01-17T01:17:49.558Z,7.70
2019-01-17T01:20:23.761Z,7.13
2019-01-17T01:23:32.737Z,7.17
2019-01-17T01:31:24.985Z,6.97
2019-01-17T01:34:16.833Z,7.13
2019-01-17T01:37:01.477Z,6.43
2019-01-17T01:39:41.540Z,6.83
2019-01-17T01:42:18.472Z,6.50
2019-01-17T01:45:07.229Z,6.37
2019-01-17T01:47:53.173Z,6.07
2019-01-17T01:50:27.957Z,6.30
2019-01-17T01:53:14.365Z,6.10
2019-01-17T01:55:46.696Z,5.37
2019-01-17T01:58:13.010Z,5.47
2019-01-17T02:00:39.469Z,6.03
2019-01-17T02:03:06.374Z,5.23
2019-01-17T02:05:32.579Z,5.20
2019-01-17T02:08:02.451Z,5.40
2019-01-17T02:10:28.626Z,5.40
2019-01-17T02:12:54.843Z,5.37
2019-01-17T02:15:44.968Z,5.43
2019-01-17T02:18:11.263Z,5.23
2019-01-17T02:20:49.565Z,5.40
2019-01-17T02:23:17.003Z,5.30
2019-01-17T02:25:43.440Z,6.03
2019-01-17T02:28:11.803Z,5.37
2019-01-17T02:30:38.374Z,4.97
2019-01-17T02:33:04.681Z,5.60
2019-01-17T02:35:30.873Z,5.63
2019-01-17T02:37:59.567Z,5.20
2019-01-17T02:40:25.922Z,5.63
2019-01-17T02:42:52.247Z,5.10
2019-01-17T02:45:21.667Z,5.37
2019-01-17T02:50:32.784Z,5.50
2019-01-17T02:52:58.974Z,6.40
2019-01-17T02:55:46.224Z,6.30
2019-01-17T02:58:12.899Z,6.43
2019-01-17T03:00:39.191Z,6.20
2019-01-17T03:03:06.584Z,6.30
2019-01-17T03:05:33.238Z,5.97
2019-01-17T03:07:59.532Z,6.50
2019-01-17T03:10:37.551Z,6.07
2019-01-17T03:13:06.108Z,6.40
2019-01-17T03:15:32.380Z,6.10
2019-01-17T03:17:58.698Z,6.30
2019-01-17T03:20:25.018Z,6.40
2019-01-17T03:22:51.466Z,5.97
2019-01-17T03:25:17.716Z,7.17
2019-01-17T03:27:44.185Z,6.30
2019-01-17T03:30:12.121Z,6.60
2019-01-17T03:32:41.699Z,6.57
2019-01-17T03:35:08.090Z,6.77
2019-01-17T03:37:34.379Z,7.20
2019-01-17T03:40:00.878Z,7.17
2019-01-17T03:42:27.153Z,7.27
2019-01-17T03:44:53.408Z,7.90
2019-01-17T03:47:19.747Z,7.00
2019-01-17T03:49:45.945Z,7.27
2019-01-17T03:52:12.583Z,7.83
2019-01-17T03:54:38.762Z,7.30
2019-01-17T03:57:04.940Z,7.50
2019-01-17T03:59:31.261Z,7.77
2019-01-17T04:01:57.499Z,7.93
2019-01-17T04:04:23.696Z,8.13
2019-01-17T04:06:49.985Z,7.90
2019-01-17T04:09:16.209Z,8.60
2019-01-17T04:11:42.389Z,8.10
2019-01-17T04:14:08.565Z,7.63
2019-01-17T04:16:35.386Z,8.00
2019-01-17T04:19:01.580Z,8.20
2019-01-17T04:22:00.617Z,8.10
2019-01-17T04:24:26.871Z,7.80
2019-01-17T04:26:53.053Z,7.30
2019-01-17T04:29:29.526Z,7.47
2019-01-17T04:32:23.109Z,7.40
2019-01-17T04:34:49.321Z,7.10
2019-01-17T04:37:15.879Z,7.10
2019-01-17T04:39:42.054Z,7.13
2019-01-17T04:42:12.046Z,6.83
2019-01-17T04:44:38.235Z,6.37
2019-01-17T04:47:04.577Z,6.37
2019-01-17T04:49:30.970Z,6.33
2019-01-17T04:51:57.175Z,6.40
2019-01-17T04:56:53.549Z,5.37
2019-01-17T04:59:35.658Z,6.23
2019-01-17T05:02:01.969Z,5.33
2019-01-17T05:04:28.153Z,5.50
2019-01-17T05:07:04.936Z,5.63
2019-01-17T05:09:31.392Z,6.33
2019-01-17T05:11:57.597Z,5.50
2019-01-17T05:14:23.871Z,5.90
2019-01-17T05:16:56.401Z,5.50
2019-01-17T05:19:27.081Z,5.90
2019-01-17T05:21:53.667Z,5.43
2019-01-17T05:24:19.838Z,5.57
2019-01-17T05:26:47.752Z,5.50
2019-01-17T05:29:16.114Z,5.70
2019-01-17T05:31:42.309Z,6.13
2019-01-17T05:34:08.627Z,5.43
2019-01-17T05:36:35.224Z,5.80
2019-01-17T05:39:01.405Z,5.87
2019-01-17T05:41:27.675Z,5.40
2019-01-17T05:43:53.865Z,5.73
2019-01-17T05:46:20.040Z,5.67
2019-01-17T05:48:46.850Z,5.70
2019-01-17T05:51:13.178Z,5.30
2019-01-17T05:53:40.416Z,5.13
2019-01-17T05:56:06.904Z,5.37
2019-01-17T05:58:33.280Z,5.20
2019-01-17T06:00:59.481Z,4.83
2019-01-17T06:03:25.691Z,4.73
2019-01-17T06:05:52.231Z,4.33
2019-01-17T06:08:18.762Z,4.20
2019-01-17T06:10:44.971Z,4.50
2019-01-17T06:13:14.999Z,4.50
2019-01-17T06:15:41.792Z,4.10
2019-01-17T06:18:08.141Z,4.03
2019-01-17T06:20:34.331Z,3.37
2019-01-17T06:23:00.745Z,3.50
2019-01-17T06:25:28.111Z,3.50
2019-01-17T06:27:54.746Z,3.30
2019-01-17T06:30:20.962Z,3.70
2019-01-17T06:32:47.428Z,3.47
2019-01-17T06:35:13.766Z,3.10
2019-01-17T06:37:40.478Z,3.20
2019-01-17T06:40:29.083Z,2.53
2019-01-17T06:42:55.412Z,2.50
2019-01-17T06:45:21.631Z,2.50
2019-01-17T06:47:48.027Z,2.27
2019-01-17T06:50:14.651Z,2.03
2019-01-17T06:52:40.821Z,2.10
2019-01-17T06:55:08.477Z,2.00
2019-01-17T06:57:35.039Z,1.87
2019-01-17T07:00:01.381Z,1.90
2019-01-17T07:02:27.704Z,1.90
2019-01-17T07:04:54.074Z,1.90
2019-01-17T07:07:20.500Z,1.87
2019-01-17T07:09:46.681Z,1.93
2019-01-17T07:12:13.947Z,2.00
2019-01-17T07:14:40.151Z,2.00
2019-01-17T07:17:06.344Z,1.47
2019-01-17T07:19:32.538Z,1.53
2019-01-17T07:21:58.855Z,1.80
2019-01-17T07:24:25.048Z,1.67
2019-01-17T07:26:51.253Z,1.90
2019-01-17T07:29:17.587Z,2.10
2019-01-17T07:31:43.757Z,2.20
2019-01-17T07:34:10.578Z,2.20
2019-01-17T07:36:36.776Z,2.27
2019-01-17T07:39:04.973Z,2.10
2019-01-17T07:41:31.158Z,2.13
2019-01-17T07:43:57.763Z,2.23
2019-01-17T07:57:16.993Z,2.80
2019-01-17T07:59:55.869Z,2.50
2019-01-17T08:02:22.002Z,2.60
2019-01-17T08:04:48.142Z,2.03
2019-01-17T08:07:14.494Z,2.40
2019-01-17T08:09:40.849Z,2.10
2019-01-17T08:12:07.403Z,2.13
2019-01-17T08:14:33.836Z,2.23
2019-01-17T08:17:00.055Z,2.50
2019-01-17T08:19:26.593Z,1.93
2019-01-17T08:21:52.751Z,2.43
2019-01-17T08:24:18.889Z,2.17
2019-01-17T08:26:45.148Z,1.90
2019-01-17T08:29:11.377Z,1.90
2019-01-17T08:31:37.513Z,1.97
2019-01-17T08:34:03.739Z,1.87
2019-01-17T08:36:30.049Z,2.07
2019-01-17T08:38:56.434Z,2.00
2019-01-17T08:41:22.599Z,2.03
2019-01-17T08:44:10.839Z,2.17
2019-01-17T08:46:37.340Z,1.73
2019-01-17T08:49:05.314Z,2.10
2019-01-17T08:51:31.778Z,1.97
2019-01-17T08:54:25.310Z,2.27
2019-01-17T08:56:53.406Z,2.33
2019-01-17T08:59:20.118Z,2.83
2019-01-17T09:01:58.993Z,2.70
2019-01-17T09:04:25.353Z,2.37
2019-01-17T09:06:51.881Z,2.50
2019-01-17T09:09:18.099Z,2.67
2019-01-17T09:11:44.634Z,2.70
2019-01-17T09:14:10.955Z,2.60
2019-01-17T09:16:37.488Z,3.00
2019-01-17T09:19:03.845Z,3.10
2019-01-17T09:21:30.035Z,3.00
2019-01-17T09:23:56.248Z,2.97
2019-01-17T09:26:22.563Z,3.80
2019-01-17T09:28:48.796Z,3.50
2019-01-17T09:31:15.404Z,3.47
2019-01-17T09:33:41.721Z,3.80
2019-01-17T09:36:08.026Z,3.20
2019-01-17T09:38:34.348Z,3.53
2019-01-17T09:41:00.573Z,3.20
2019-01-17T09:43:26.760Z,3.10
2019-01-17T09:45:53.169Z,3.10
2019-01-17T09:48:19.383Z,2.80
2019-01-17T09:50:45.666Z,2.83
2019-01-17T09:53:12.010Z,2.83
2019-01-17T09:55:38.514Z,2.90
2019-01-17T09:58:04.712Z,3.00
2019-01-17T10:00:31.166Z,2.70
2019-01-17T10:02:57.506Z,2.80
2019-01-17T10:05:23.732Z,3.00
2019-01-17T10:07:50.078Z,3.40
2019-01-17T10:10:16.633Z,3.17
2019-01-17T10:12:42.937Z,2.77
2019-01-17T10:15:11.073Z,2.83
2019-01-17T10:17:40.418Z,3.23
2019-01-17T10:20:26.281Z,2.90
2019-01-17T10:22:58.269Z,2.80
2019-01-17T10:25:31.262Z,3.60
2019-01-17T10:28:11.471Z,3.80
2019-01-17T10:30:46.105Z,3.77
2019-01-17T10:33:21.252Z,3.50
2019-01-17T10:36:19.213Z,3.57
2019-01-17T10:39:08.031Z,3.03
2019-01-17T10:42:03.020Z,2.90
2019-01-17T10:44:35.071Z,3.23
2019-01-17T10:47:26.971Z,2.70
2019-01-17T10:50:12.824Z,3.00
2019-01-17T10:52:49.094Z,2.30
2019-01-17T10:55:40.891Z,2.00
2019-01-17T10:58:26.752Z,1.70
2019-01-17T11:01:13.804Z,1.70
2019-01-17T11:03:58.495Z,1.90
2019-01-17T11:06:56.241Z,1.70
2019-01-17T11:09:30.988Z,1.40
2019-01-17T11:12:03.030Z,1.30
2019-01-17T11:14:36.532Z,1.47
2019-01-17T11:17:22.583Z,1.30
2019-01-17T11:20:07.032Z,1.00
2019-01-17T11:22:56.229Z,1.53
2019-01-17T11:25:48.271Z,1.70
2019-01-17T11:28:49.187Z,1.60
2019-01-17T11:31:40.951Z,1.37
2019-01-17T11:34:26.842Z,1.30
2019-01-17T11:37:18.473Z,1.30
2019-01-17T11:40:10.541Z,1.50
2019-01-17T11:43:05.334Z,1.17
2019-01-17T11:46:00.375Z,1.70
2019-01-17T11:48:55.568Z,1.63
2019-01-17T11:51:47.355Z,2.50
2019-01-17T11:54:27.069Z,1.80
2019-01-17T11:57:19.035Z,1.50
2019-01-17T12:00:05.098Z,1.17
2019-01-17T12:02:39.244Z,1.40
2019-01-17T12:05:04.967Z,1.30
2019-01-17T12:07:31.311Z,1.20
2019-01-17T12:09:57.634Z,1.40
2019-01-17T12:12:24.735Z,1.40
2019-01-17T12:14:51.635Z,1.60
2019-01-17T12:17:17.896Z,1.50
2019-01-17T12:19:44.109Z,1.40
2019-01-17T12:22:10.946Z,1.40
2019-01-17T12:24:37.356Z,1.50
2019-01-17T12:27:03.625Z,1.43
2019-01-17T12:29:30.150Z,1.50
2019-01-17T12:31:56.497Z,1.30
2019-01-17T12:34:26.417Z,1.37
2019-01-17T12:36:52.984Z,1.40
2019-01-17T12:39:19.422Z,1.30
2019-01-17T12:41:45.740Z,1.20
2019-01-17T12:44:13.129Z,1.63
2019-01-17T12:46:50.520Z,1.27
2019-01-17T12:49:16.722Z,1.40
2019-01-17T12:51:43.028Z,1.60
2019-01-17T12:54:09.383Z,1.80
2019-01-17T12:56:35.686Z,1.67
2019-01-17T12:59:01.990Z,1.33
2019-01-17T13:01:28.194Z,1.67
2019-01-17T13:03:54.477Z,1.57
2019-01-17T13:06:20.762Z,1.50
2019-01-17T13:08:47.002Z,1.43
2019-01-17T13:11:13.214Z,1.20
2019-01-17T13:13:39.524Z,1.47
2019-01-17T13:16:05.817Z,1.50
2019-01-17T13:18:32.300Z,1.23
2019-01-17T13:20:58.606Z,1.27
2019-01-17T13:23:24.946Z,1.20
2019-01-17T13:25:51.290Z,1.50
2019-01-17T13:28:17.510Z,1.60
2019-01-17T13:30:43.765Z,1.40
2019-01-17T13:33:10.371Z,1.50
2019-01-17T13:35:36.850Z,1.50
2019-01-17T13:38:03.241Z,1.80
2019-01-17T13:40:29.475Z,1.87
2019-01-17T13:42:55.754Z,1.40
2019-01-17T13:45:21.967Z,1.20
2019-01-17T13:47:48.469Z,1.13
2019-01-17T13:50:14.825Z,1.33
2019-01-17T13:52:41.308Z,1.37
2019-01-17T13:55:07.910Z,1.63
2019-01-17T13:57:34.248Z,1.37
2019-01-17T14:00:00.649Z,1.63
2019-01-17T14:02:26.974Z,1.30
2019-01-17T14:04:53.273Z,0.93
2019-01-17T14:07:19.549Z,1.00
2019-01-17T14:09:46.020Z,1.00
2019-01-17T14:12:12.601Z,1.00
2019-01-17T14:14:38.758Z,0.97
2019-01-17T14:17:04.962Z,1.30
2019-01-17T14:19:31.195Z,0.87
2019-01-17T14:21:57.648Z,0.80
2019-01-17T14:24:23.826Z,1.10
2019-01-17T14:26:50.148Z,1.10
2019-01-17T14:29:16.428Z,1.10
2019-01-17T14:31:42.718Z,1.10
2019-01-17T14:34:08.998Z,0.80
2019-01-17T14:36:35.208Z,1.00
2019-01-17T14:39:01.403Z,1.10
2019-01-17T14:41:27.722Z,1.10
2019-01-17T14:43:53.923Z,1.77
2019-01-17T14:46:20.110Z,1.20
2019-01-17T14:48:48.689Z,1.33
2019-01-17T14:51:14.984Z,1.67
2019-01-17T14:53:41.482Z,1.23
2019-01-17T14:56:08.247Z,1.03
2019-01-17T14:58:34.834Z,1.63
2019-01-17T15:01:01.514Z,1.80
2019-01-17T15:03:27.912Z,1.40
2019-01-17T15:05:54.116Z,1.80
2019-01-17T15:08:20.489Z,1.67
2019-01-17T15:10:47.133Z,1.90
2019-01-17T15:13:13.573Z,1.57
2019-01-17T15:15:39.908Z,1.50
2019-01-17T15:18:06.418Z,1.50
2019-01-17T15:20:32.583Z,1.73
2019-01-17T15:22:58.898Z,1.80
2019-01-17T15:25:25.170Z,1.30
2019-01-17T15:27:51.379Z,1.40
2019-01-17T15:30:18.665Z,1.67
2019-01-17T15:32:45.428Z,1.20
2019-01-17T15:35:11.990Z,0.90
2019-01-17T15:37:38.235Z,0.80
2019-01-17T15:40:05.440Z,1.00
2019-01-17T15:42:31.620Z,1.20
2019-01-17T15:44:57.865Z,0.90
2019-01-17T15:47:24.055Z,1.10
2019-01-17T15:49:50.713Z,1.07
2019-01-17T15:52:16.906Z,0.97
2019-01-17T15:54:43.245Z,0.80
2019-01-17T15:57:09.425Z,1.20
2019-01-17T15:59:35.748Z,1.00
2019-01-17T16:02:02.044Z,0.80
2019-01-17T16:04:28.275Z,1.20
2019-01-17T16:06:54.580Z,1.20
2019-01-17T16:09:20.833Z,1.20
2019-01-17T16:11:47.057Z,1.10
2019-01-17T16:14:13.440Z,1.40
2019-01-17T16:16:39.607Z,1.30
2019-01-17T16:19:05.780Z,1.13
2019-01-17T16:21:34.627Z,1.27
2019-01-17T16:24:00.835Z,1.57
2019-01-17T16:26:27.150Z,1.40
2019-01-17T16:28:53.324Z,1.53
2019-01-17T16:31:19.669Z,1.60
2019-01-17T16:33:46.023Z,1.20
2019-01-17T16:36:12.281Z,1.33
2019-01-17T16:38:38.618Z,2.10
2019-01-17T16:41:04.785Z,1.20
2019-01-17T16:43:31.136Z,1.50
2019-01-17T16:45:57.312Z,1.73
2019-01-17T16:48:23.523Z,2.57
2019-01-17T16:50:49.741Z,2.33
2019-01-17T16:53:17.171Z,2.30
2019-01-17T16:55:43.533Z,2.33
2019-01-17T16:58:09.858Z,2.43
2019-01-17T17:00:37.489Z,2.23
2019-01-17T17:03:03.765Z,1.70
2019-01-17T17:05:30.113Z,1.70
2019-01-17T17:07:56.408Z,1.80
2019-01-17T17:10:22.663Z,1.80
2019-01-17T17:12:48.958Z,2.50
2019-01-17T17:15:15.174Z,1.70
2019-01-17T17:17:41.693Z,1.80
2019-01-17T17:20:09.331Z,1.90
2019-01-17T17:22:35.629Z,1.90
2019-01-17T17:25:02.021Z,1.93
2019-01-17T17:27:28.275Z,2.13
2019-01-17T17:29:54.797Z,1.80
2019-01-17T17:32:21.041Z,2.53
2019-01-17T17:34:47.238Z,2.43
2019-01-17T17:37:13.606Z,2.70
2019-01-17T17:39:39.841Z,2.20
2019-01-17T17:42:06.119Z,2.53
2019-01-17T17:44:32.357Z,2.67
2019-01-17T17:46:58.687Z,4.80
2019-01-17T17:49:24.910Z,2.60
2019-01-17T17:51:51.950Z,2.00
2019-01-17T17:54:18.480Z,2.33
2019-01-17T17:56:44.795Z,2.00
2019-01-17T17:59:11.337Z,2.10
2019-01-17T18:01:40.662Z,2.03
2019-01-17T18:04:06.857Z,1.93
2019-01-17T18:06:33.187Z,2.27
2019-01-17T18:09:00.426Z,1.80
2019-01-17T18:11:27.196Z,1.77
2019-01-17T18:13:53.882Z,1.83
2019-01-17T18:16:20.256Z,2.00
2019-01-17T18:18:48.774Z,2.13
2019-01-17T18:21:15.175Z,2.50
2019-01-17T18:23:42.026Z,2.80
2019-01-17T18:26:08.785Z,2.53
2019-01-17T18:28:35.313Z,2.60
2019-01-17T18:31:01.794Z,2.97
2019-01-17T18:33:28.200Z,2.70
2019-01-17T18:35:54.679Z,3.93
2019-01-17T18:38:21.530Z,4.80
2019-01-17T18:40:53.686Z,4.43
2019-01-17T18:43:20.000Z,4.67
2019-01-17T18:45:46.385Z,3.57
2019-01-17T18:48:12.581Z,3.40
2019-01-17T18:50:38.845Z,3.50
2019-01-17T18:53:05.424Z,3.67
2019-01-17T18:55:31.875Z,3.50
2019-01-17T18:57:58.376Z,3.50
2019-01-17T19:00:29.258Z,4.40
2019-01-17T19:02:55.857Z,3.80
2019-01-17T19:05:22.456Z,2.90
2019-01-17T19:07:48.850Z,3.77
2019-01-17T19:10:15.881Z,4.30
2019-01-17T19:12:42.309Z,2.50
2019-01-17T19:15:09.465Z,2.27
2019-01-17T19:17:35.802Z,2.60
2019-01-17T19:20:02.276Z,3.17
2019-01-17T19:22:28.869Z,3.23
2019-01-17T19:24:55.311Z,3.40
2019-01-17T19:27:21.553Z,3.30
2019-01-17T19:29:47.890Z,2.80
2019-01-17T19:32:14.418Z,2.83
2019-01-17T19:34:41.534Z,3.30
2019-01-17T19:37:07.853Z,2.57
2019-01-17T19:39:34.136Z,1.80
2019-01-17T19:42:00.486Z,1.53
2019-01-17T19:44:26.954Z,1.70
2019-01-17T19:46:53.443Z,1.60
2019-01-17T19:49:19.817Z,1.80
2019-01-17T19:51:46.441Z,1.30
2019-01-17T19:54:12.659Z,1.37
2019-01-17T19:56:39.075Z,1.53
2019-01-17T19:59:05.984Z,3.13
2019-01-17T20:01:32.450Z,2.50
2019-01-17T20:03:58.788Z,1.43
2019-01-17T20:06:25.315Z,1.90
2019-01-17T20:08:51.863Z,2.10
2019-01-17T20:11:18.221Z,5.27
2019-01-17T20:13:44.927Z,2.40
2019-01-17T20:16:11.239Z,4.27
2019-01-17T20:18:37.687Z,2.50
2019-01-17T20:21:09.808Z,2.10
2019-01-17T20:23:36.352Z,2.90
2019-01-17T20:26:02.706Z,2.27
2019-01-17T20:28:35.591Z,2.40
2019-01-17T20:30:58.835Z,2.03
2019-01-17T20:33:30.114Z,3.10
2019-01-17T20:36:07.908Z,2.93
2019-01-17T20:38:35.585Z,3.00
2019-01-17T20:41:02.577Z,3.43
2019-01-17T20:43:36.753Z,3.30
2019-01-17T20:46:04.745Z,3.50
2019-01-17T20:48:31.300Z,3.00
2019-01-17T20:50:58.426Z,3.70
2019-01-17T20:53:25.517Z,3.90
2019-01-17T20:55:51.998Z,3.87
2019-01-17T20:58:18.742Z,3.97
2019-01-17T21:00:52.452Z,2.87
2019-01-17T21:03:19.244Z,3.23
2019-01-17T21:05:45.930Z,3.27
2019-01-17T21:08:15.682Z,3.50
2019-01-17T21:10:42.529Z,3.87
2019-01-17T21:13:08.782Z,2.97
2019-01-17T21:15:39.934Z,3.60
2019-01-17T21:18:06.208Z,3.00
2019-01-17T21:20:32.737Z,3.40
2019-01-17T21:22:59.770Z,3.30
2019-01-17T21:25:25.984Z,3.50
2019-01-17T21:27:52.423Z,3.40
2019-01-17T21:30:20.165Z,3.47
2019-01-17T21:32:46.675Z,3.40
2019-01-17T21:35:13.202Z,3.80
2019-01-17T21:37:39.748Z,5.60
2019-01-17T21:40:08.190Z,4.20
2019-01-17T21:42:34.767Z,3.40
2019-01-17T21:45:07.082Z,3.37
2019-01-17T21:47:33.631Z,3.20
2019-01-17T21:50:29.531Z,3.17
2019-01-17T21:52:55.885Z,3.20
2019-01-17T21:55:22.321Z,2.90
2019-01-17T21:57:51.037Z,2.67
2019-01-17T22:00:34.886Z,2.30
2019-01-17T22:03:06.014Z,2.50
2019-01-17T22:05:32.526Z,2.47
2019-01-17T22:07:59.003Z,2.43
2019-01-17T22:10:52.790Z,2.60
2019-01-17T22:13:19.410Z,2.03
2019-01-17T22:15:54.010Z,2.57
2019-01-17T22:18:24.199Z,1.80
2019-01-17T22:20:57.118Z,2.43
2019-01-17T22:23:28.444Z,2.57
2019-01-17T22:25:55.006Z,2.70
2019-01-17T22:28:21.566Z,2.30
2019-01-17T22:30:48.051Z,2.40
2019-01-17T22:33:16.729Z,2.67
2019-01-17T22:35:43.242Z,2.03
2019-01-17T22:38:12.507Z,2.43
2019-01-17T22:40:42.256Z,2.67
2019-01-17T22:43:08.765Z,2.37
2019-01-17T22:45:35.274Z,2.53
2019-01-17T22:48:07.752Z,2.00
2019-01-17T22:50:42.106Z,2.80
2019-01-17T22:53:08.611Z,2.30
2019-01-17T22:55:35.223Z,2.40
2019-01-17T22:58:01.755Z,2.40
2019-01-17T23:00:41.857Z,2.73
2019-01-17T23:03:08.927Z,2.40
2019-01-17T23:05:35.482Z,2.60
2019-01-17T23:08:01.917Z,2.83
2019-01-17T23:10:28.516Z,2.80
2019-01-17T23:12:54.976Z,2.30
2019-01-17T23:15:21.504Z,2.77
2019-01-17T23:17:48.190Z,2.07
2019-01-17T23:20:14.618Z,2.87
2019-01-17T23:22:41.341Z,2.50
2019-01-17T23:25:08.208Z,2.70
2019-01-17T23:27:34.623Z,2.67
2019-01-17T23:30:01.211Z,2.60
2019-01-17T23:32:30.584Z,2.53
2019-01-17T23:35:02.376Z,2.77
2019-01-17T23:37:41.226Z,2.40
2019-01-17T23:40:17.805Z,2.63
2019-01-17T23:42:57.788Z,3.20
2019-01-17T23:45:29.799Z,3.17
2019-01-17T23:47:56.343Z,3.00
2019-01-17T23:50:22.909Z,2.90
2019-01-17T23:52:49.460Z,2.67
2019-01-17T23:55:16.048Z,2.20
2019-01-17T23:57:42.575Z,3.37
